createdAt,value
2018-05-10T00:00:49.545Z,50.60
2018-05-10T00:03:17.903Z,50.40
2018-05-10T00:05:47.085Z,50.10
2018-05-10T00:08:16.269Z,50.20
2018-05-10T00:10:44.538Z,50.20
2018-05-10T00:13:12.861Z,50.10
2018-05-10T00:15:43.053Z,50.50
2018-05-10T00:18:11.362Z,50.60
2018-05-10T00:20:39.737Z,50.40
2018-05-10T00:23:08.263Z,50.40
2018-05-10T00:25:36.801Z,50.80
2018-05-10T00:28:05.159Z,51.00
2018-05-10T00:30:34.527Z,51.60
2018-05-10T00:33:02.833Z,51.60
2018-05-10T00:35:31.930Z,52.80
2018-05-10T00:38:00.996Z,53.90
2018-05-10T00:40:29.316Z,53.80
2018-05-10T00:42:57.593Z,54.40
2018-05-10T00:45:25.938Z,54.00
2018-05-10T00:47:56.127Z,53.50
2018-05-10T00:50:24.478Z,53.50
2018-05-10T00:52:52.826Z,53.40
2018-05-10T00:55:21.984Z,52.50
2018-05-10T00:57:51.173Z,52.50
2018-05-10T01:00:19.466Z,51.90
2018-05-10T01:02:47.789Z,52.50
2018-05-10T01:05:16.102Z,52.30
2018-05-10T01:07:44.432Z,52.50
2018-05-10T01:10:13.702Z,52.40
2018-05-10T01:12:42.235Z,52.40
2018-05-10T01:15:10.571Z,52.50
2018-05-10T01:17:39.686Z,51.50
2018-05-10T01:20:09.959Z,51.60
2018-05-10T01:22:38.260Z,51.60
2018-05-10T01:25:07.506Z,52.10
2018-05-10T01:27:35.809Z,52.20
2018-05-10T01:30:04.099Z,53.00
2018-05-10T01:32:32.724Z,52.70
2018-05-10T01:35:18.872Z,53.40
2018-05-10T01:37:47.353Z,54.20
2018-05-10T01:40:15.628Z,55.50
2018-05-10T01:42:43.949Z,56.50
2018-05-10T01:45:13.043Z,57.60
2018-05-10T01:47:41.433Z,57.60
2018-05-10T01:50:09.758Z,58.30
2018-05-10T01:52:38.091Z,58.60
2018-05-10T01:55:06.382Z,58.90
2018-05-10T01:57:34.752Z,59.20
2018-05-10T02:00:03.221Z,60.00
2018-05-10T02:02:31.548Z,60.20
2018-05-10T02:04:59.837Z,59.70
2018-05-10T02:07:29.658Z,59.50
2018-05-10T02:09:59.121Z,59.80
2018-05-10T02:12:27.493Z,59.20
2018-05-10T02:14:55.774Z,59.00
2018-05-10T02:17:24.091Z,59.00
2018-05-10T02:19:52.402Z,59.90
2018-05-10T02:22:20.734Z,59.80
2018-05-10T02:24:49.051Z,60.60
2018-05-10T02:27:17.524Z,61.00
2018-05-10T02:29:45.951Z,61.20
2018-05-10T02:32:14.342Z,61.50
2018-05-10T02:34:43.532Z,61.80
2018-05-10T02:37:12.793Z,61.60
2018-05-10T02:39:41.164Z,61.50
2018-05-10T02:42:09.498Z,61.80
2018-05-10T02:44:37.788Z,61.90
2018-05-10T02:47:06.100Z,62.00
2018-05-10T02:49:34.477Z,62.10
2018-05-10T02:52:02.837Z,61.50
2018-05-10T02:54:31.874Z,61.70
2018-05-10T02:57:00.298Z,61.70
2018-05-10T02:59:29.527Z,61.80
2018-05-10T03:01:58.012Z,61.80
2018-05-10T03:04:26.433Z,61.80
2018-05-10T03:06:54.753Z,61.70
2018-05-10T03:09:23.160Z,61.20
2018-05-10T03:11:51.547Z,61.80
2018-05-10T03:14:19.993Z,61.60
2018-05-10T03:16:48.372Z,61.60
2018-05-10T03:19:16.784Z,61.40
2018-05-10T03:21:45.150Z,61.50
2018-05-10T03:24:13.458Z,61.40
2018-05-10T03:26:41.761Z,61.10
2018-05-10T03:29:10.102Z,61.00
2018-05-10T03:31:38.447Z,61.40
2018-05-10T03:34:06.842Z,61.10
2018-05-10T03:36:36.542Z,61.20
2018-05-10T03:39:04.827Z,61.40
2018-05-10T03:41:33.136Z,61.60
2018-05-10T03:44:01.436Z,61.60
2018-05-10T03:46:30.673Z,60.80
2018-05-10T03:48:58.982Z,60.80
2018-05-10T03:51:27.292Z,61.20
2018-05-10T03:53:56.430Z,60.60
2018-05-10T03:56:24.869Z,60.50
2018-05-10T03:58:53.155Z,60.80
2018-05-10T04:01:22.339Z,60.60
2018-05-10T04:07:16.773Z,59.90
2018-05-10T04:10:02.964Z,60.40
2018-05-10T04:12:31.289Z,60.40
2018-05-10T04:14:59.808Z,60.30
2018-05-10T04:17:28.975Z,60.30
2018-05-10T04:19:58.973Z,60.30
2018-05-10T04:22:27.289Z,60.30
2018-05-10T04:24:56.523Z,59.70
2018-05-10T04:27:24.879Z,59.70
2018-05-10T04:29:53.940Z,60.20
2018-05-10T04:32:22.407Z,60.20
2018-05-10T04:34:50.733Z,59.90
2018-05-10T04:37:19.339Z,59.40
2018-05-10T04:39:47.793Z,59.30
2018-05-10T04:42:16.205Z,57.90
2018-05-10T04:44:44.514Z,58.10
2018-05-10T04:47:14.398Z,58.10
2018-05-10T04:49:42.719Z,58.00
2018-05-10T04:52:12.649Z,58.20
2018-05-10T04:54:42.885Z,58.00
2018-05-10T04:57:11.218Z,58.00
2018-05-10T04:59:39.580Z,57.80
2018-05-10T05:02:07.880Z,57.50
2018-05-10T05:04:36.418Z,58.10
2018-05-10T05:07:04.938Z,57.30
2018-05-10T05:09:33.305Z,56.90
2018-05-10T05:12:01.801Z,57.30
2018-05-10T05:14:30.778Z,57.40
2018-05-10T05:16:59.094Z,57.30
2018-05-10T05:19:28.174Z,57.30
2018-05-10T05:21:57.477Z,57.20
2018-05-10T05:24:26.584Z,57.10
2018-05-10T05:26:56.214Z,56.90
2018-05-10T05:29:24.526Z,57.00
2018-05-10T05:31:54.443Z,56.30
2018-05-10T05:34:22.789Z,56.10
2018-05-10T05:36:51.376Z,56.20
2018-05-10T05:39:19.990Z,56.30
2018-05-10T05:41:48.359Z,56.10
2018-05-10T05:44:16.723Z,55.70
2018-05-10T05:46:45.041Z,56.40
2018-05-10T05:49:13.415Z,55.90
2018-05-10T05:51:41.741Z,55.70
2018-05-10T05:54:10.197Z,55.80
2018-05-10T05:56:38.730Z,56.30
2018-05-10T05:59:07.304Z,56.40
2018-05-10T06:01:35.764Z,56.40
2018-05-10T06:04:04.273Z,56.60
2018-05-10T06:06:32.655Z,56.20
2018-05-10T06:09:01.023Z,56.70
2018-05-10T06:11:29.364Z,56.50
2018-05-10T06:13:57.728Z,57.10
2018-05-10T06:16:26.224Z,56.60
2018-05-10T06:18:55.281Z,57.40
2018-05-10T06:21:24.130Z,57.30
2018-05-10T06:23:52.443Z,57.10
2018-05-10T06:26:20.769Z,57.30
2018-05-10T06:28:49.235Z,57.40
2018-05-10T06:31:18.359Z,56.80
2018-05-10T06:33:46.713Z,56.70
2018-05-10T06:36:15.815Z,57.10
2018-05-10T06:38:44.215Z,57.00
2018-05-10T06:41:12.883Z,57.00
2018-05-10T06:43:41.374Z,56.60
2018-05-10T06:46:09.718Z,57.40
2018-05-10T06:48:38.839Z,57.50
2018-05-10T06:51:07.113Z,57.50
2018-05-10T06:53:35.445Z,58.40
2018-05-10T06:56:03.821Z,58.70
2018-05-10T06:58:32.145Z,58.60
2018-05-10T07:01:00.624Z,57.80
2018-05-10T07:03:29.059Z,58.60
2018-05-10T07:05:57.493Z,58.60
2018-05-10T07:08:25.786Z,58.80
2018-05-10T07:10:54.109Z,58.30
2018-05-10T07:13:23.193Z,58.80
2018-05-10T07:15:52.370Z,59.30
2018-05-10T07:18:20.690Z,58.80
2018-05-10T07:20:49.915Z,58.00
2018-05-10T07:23:18.288Z,58.00
2018-05-10T07:25:46.836Z,58.60
2018-05-10T07:28:17.458Z,59.70
2018-05-10T07:30:47.674Z,60.80
2018-05-10T07:33:16.183Z,60.20
2018-05-10T07:35:44.532Z,60.00
2018-05-10T07:38:12.981Z,61.20
2018-05-10T07:40:41.327Z,57.80
2018-05-10T07:43:09.679Z,56.80
2018-05-10T07:45:39.176Z,57.70
2018-05-10T07:48:08.334Z,58.00
2018-05-10T07:50:36.701Z,58.00
2018-05-10T07:53:05.043Z,57.70
2018-05-10T07:55:33.527Z,56.50
2018-05-10T07:58:02.732Z,57.40
2018-05-10T08:00:31.159Z,57.40
2018-05-10T08:02:59.733Z,55.00
2018-05-10T08:05:28.046Z,54.00
2018-05-10T08:07:57.216Z,51.90
2018-05-10T08:10:25.606Z,52.40
2018-05-10T08:12:54.144Z,52.80
2018-05-10T08:15:22.472Z,54.70
2018-05-10T08:17:50.871Z,54.90
2018-05-10T08:20:20.142Z,55.00
2018-05-10T08:22:48.731Z,55.00
2018-05-10T08:25:17.131Z,55.30
2018-05-10T08:27:47.305Z,54.20
2018-05-10T08:30:15.803Z,54.20
2018-05-10T08:32:44.127Z,54.50
2018-05-10T08:35:13.256Z,55.10
2018-05-10T08:37:41.697Z,55.10
2018-05-10T08:40:10.105Z,53.00
2018-05-10T08:42:38.451Z,53.70
2018-05-10T08:45:07.629Z,52.70
2018-05-10T08:47:36.531Z,52.80
2018-05-10T08:50:05.726Z,52.20
2018-05-10T08:52:34.825Z,52.00
2018-05-10T08:55:03.963Z,50.60
2018-05-10T08:57:32.375Z,50.40
2018-05-10T09:00:01.090Z,51.10
2018-05-10T09:02:29.519Z,49.20
2018-05-10T09:04:58.075Z,50.80
2018-05-10T09:07:26.578Z,50.80
2018-05-10T09:09:55.896Z,51.10
2018-05-10T09:12:24.311Z,51.90
2018-05-10T09:14:53.632Z,51.30
2018-05-10T09:17:22.187Z,51.30
2018-05-10T09:19:50.559Z,50.60
2018-05-10T09:22:19.744Z,50.50
2018-05-10T09:24:48.509Z,50.50
2018-05-10T09:27:16.937Z,51.00
2018-05-10T09:29:46.296Z,51.30
2018-05-10T09:32:16.114Z,51.30
2018-05-10T09:34:44.719Z,50.00
2018-05-10T09:37:13.171Z,49.80
2018-05-10T09:39:43.765Z,51.00
2018-05-10T09:42:12.124Z,49.30
2018-05-10T09:44:41.348Z,50.30
2018-05-10T09:47:09.970Z,50.30
2018-05-10T09:49:38.707Z,50.50
2018-05-10T09:52:07.284Z,48.40
2018-05-10T09:54:36.437Z,48.00
2018-05-10T09:57:04.876Z,48.00
2018-05-10T09:59:33.385Z,47.10
2018-05-10T10:02:01.960Z,48.20
2018-05-10T10:04:30.377Z,47.30
2018-05-10T10:06:58.941Z,47.30
2018-05-10T10:09:27.471Z,47.70
2018-05-10T10:11:57.926Z,47.30
2018-05-10T10:14:28.089Z,46.90
2018-05-10T10:16:57.352Z,46.90
2018-05-10T10:19:25.697Z,47.70
2018-05-10T10:21:54.773Z,47.50
2018-05-10T10:24:23.118Z,47.50
2018-05-10T10:26:51.722Z,47.00
2018-05-10T10:29:20.321Z,46.50
2018-05-10T10:31:48.663Z,46.70
2018-05-10T10:34:16.989Z,46.50
2018-05-10T10:36:45.478Z,46.00
2018-05-10T10:39:14.291Z,45.20
2018-05-10T10:41:42.641Z,46.00
2018-05-10T10:44:11.047Z,45.40
2018-05-10T10:46:39.405Z,45.40
2018-05-10T10:49:07.774Z,43.70
2018-05-10T10:51:36.957Z,42.80
2018-05-10T10:54:06.070Z,40.10
2018-05-10T10:56:34.780Z,40.10
2018-05-10T10:59:03.183Z,39.70
2018-05-10T11:01:31.542Z,40.10
2018-05-10T11:04:00.011Z,40.80
2018-05-10T11:06:28.474Z,40.80
2018-05-10T11:08:57.575Z,42.10
2018-05-10T11:11:26.057Z,42.10
2018-05-10T11:13:54.486Z,42.30
2018-05-10T11:16:23.008Z,42.00
2018-05-10T11:18:52.340Z,38.40
2018-05-10T11:21:20.870Z,38.40
2018-05-10T11:23:49.460Z,37.70
2018-05-10T11:26:18.905Z,36.40
2018-05-10T11:28:47.256Z,36.40
2018-05-10T11:31:16.413Z,32.80
2018-05-10T11:33:44.699Z,32.80
2018-05-10T11:36:13.079Z,30.30
2018-05-10T11:38:41.660Z,29.70
2018-05-10T11:41:10.176Z,29.20
2018-05-10T11:43:39.586Z,30.70
2018-05-10T11:46:07.897Z,30.70
2018-05-10T11:48:36.401Z,32.50
2018-05-10T11:51:05.032Z,34.40
2018-05-10T11:53:33.453Z,36.20
2018-05-10T11:56:01.812Z,37.00
2018-05-10T11:58:31.301Z,38.00
2018-05-10T12:00:59.900Z,39.50
2018-05-10T12:03:28.268Z,41.30
2018-05-10T12:05:56.665Z,42.50
2018-05-10T12:08:25.008Z,43.60
2018-05-10T12:10:53.418Z,44.20
2018-05-10T12:13:21.895Z,45.30
2018-05-10T12:15:50.408Z,46.30
2018-05-10T12:18:18.849Z,46.90
2018-05-10T12:20:47.249Z,46.60
2018-05-10T12:23:15.733Z,46.80
2018-05-10T12:25:44.813Z,47.50
2018-05-10T12:28:13.722Z,47.40
2018-05-10T12:30:42.133Z,47.60
2018-05-10T12:33:10.501Z,48.00
2018-05-10T12:35:39.086Z,48.20
2018-05-10T12:38:07.528Z,48.00
2018-05-10T12:40:35.945Z,49.20
2018-05-10T12:43:04.366Z,49.10
2018-05-10T12:45:32.696Z,49.60
2018-05-10T12:48:01.228Z,50.10
2018-05-10T12:50:29.724Z,50.80
2018-05-10T12:52:58.101Z,51.20
2018-05-10T12:55:26.473Z,52.00
2018-05-10T12:57:56.843Z,52.10
2018-05-10T13:00:27.088Z,52.60
2018-05-10T13:02:56.349Z,53.70
2018-05-10T13:05:24.682Z,53.70
2018-05-10T13:07:53.345Z,53.80
2018-05-10T13:10:22.472Z,54.50
2018-05-10T13:12:50.828Z,54.50
2018-05-10T13:15:19.966Z,54.80
2018-05-10T13:17:48.423Z,54.80
2018-05-10T13:20:16.886Z,55.30
2018-05-10T13:22:46.063Z,55.40
2018-05-10T13:25:14.490Z,55.30
2018-05-10T13:27:42.901Z,56.20
2018-05-10T13:30:12.241Z,57.00
2018-05-10T13:32:40.632Z,56.90
2018-05-10T13:35:11.079Z,57.60
2018-05-10T13:37:41.160Z,58.00
2018-05-10T13:40:11.360Z,57.80
2018-05-10T13:42:41.282Z,57.70
2018-05-10T13:45:10.610Z,57.70
2018-05-10T13:47:41.125Z,58.10
2018-05-10T13:50:11.037Z,58.00
2018-05-10T13:52:41.326Z,59.00
2018-05-10T13:55:11.100Z,59.00
2018-05-10T13:57:39.813Z,58.80
2018-05-10T14:00:08.227Z,58.70
2018-05-10T14:02:36.588Z,59.00
2018-05-10T14:05:04.952Z,59.20
2018-05-10T14:07:33.516Z,59.40
2018-05-10T14:10:02.068Z,59.40
2018-05-10T14:12:30.482Z,58.60
2018-05-10T14:14:59.180Z,58.90
2018-05-10T14:17:27.502Z,58.70
2018-05-10T14:19:55.885Z,58.80
2018-05-10T14:22:25.048Z,59.40
2018-05-10T14:24:53.502Z,58.70
2018-05-10T14:27:21.911Z,58.20
2018-05-10T14:29:50.371Z,57.90
2018-05-10T14:32:20.211Z,58.20
2018-05-10T14:34:48.705Z,58.80
2018-05-10T14:37:17.892Z,58.20
2018-05-10T14:39:46.272Z,58.20
2018-05-10T14:42:14.820Z,58.70
2018-05-10T14:44:43.201Z,59.50
2018-05-10T14:47:11.581Z,58.90
2018-05-10T14:49:39.962Z,59.00
2018-05-10T14:52:08.472Z,59.20
2018-05-10T14:54:37.587Z,60.20
2018-05-10T14:57:06.676Z,60.80
2018-05-10T14:59:35.093Z,60.40
2018-05-10T15:02:03.588Z,61.40
2018-05-10T15:04:32.178Z,62.10
2018-05-10T15:07:00.772Z,61.90
2018-05-10T15:09:29.308Z,62.10
2018-05-10T15:11:57.730Z,61.90
2018-05-10T15:14:26.406Z,61.80
2018-05-10T15:16:55.130Z,62.80
2018-05-10T15:19:23.582Z,62.70
2018-05-10T15:21:53.207Z,63.40
2018-05-10T15:24:23.403Z,62.60
2018-05-10T15:26:53.229Z,62.70
2018-05-10T15:29:22.660Z,62.60
2018-05-10T15:31:51.045Z,61.10
2018-05-10T15:34:19.573Z,61.40
2018-05-10T15:36:47.961Z,62.50
2018-05-10T15:39:16.389Z,61.40
2018-05-10T15:41:45.607Z,61.20
2018-05-10T15:44:14.111Z,61.10
2018-05-10T15:46:42.543Z,59.80
2018-05-10T15:49:11.068Z,60.70
2018-05-10T15:51:39.468Z,59.50
2018-05-10T15:54:07.941Z,59.40
2018-05-10T15:56:36.314Z,57.10
2018-05-10T15:59:04.905Z,57.30
2018-05-10T16:01:34.471Z,56.10
2018-05-10T16:04:03.680Z,55.80
2018-05-10T16:06:32.051Z,55.80
2018-05-10T16:09:00.488Z,55.30
2018-05-10T16:11:29.036Z,55.30
2018-05-10T16:13:57.580Z,55.30
2018-05-10T16:16:26.154Z,55.60
2018-05-10T16:18:54.964Z,55.60
2018-05-10T16:21:24.273Z,53.50
2018-05-10T16:23:52.726Z,53.40
2018-05-10T16:26:22.041Z,52.20
2018-05-10T16:28:51.213Z,51.50
2018-05-10T16:31:19.582Z,51.50
2018-05-10T16:33:47.970Z,51.60
2018-05-10T16:36:16.604Z,52.80
2018-05-10T16:38:45.037Z,51.50
2018-05-10T16:41:13.461Z,51.80
2018-05-10T16:43:41.975Z,52.50
2018-05-10T16:46:10.583Z,50.20
2018-05-10T16:48:39.995Z,45.90
2018-05-10T16:51:09.277Z,43.60
2018-05-10T16:53:37.948Z,39.60
2018-05-10T16:56:06.426Z,39.60
2018-05-10T16:58:34.888Z,39.40
2018-05-10T17:01:03.641Z,39.50
2018-05-10T17:03:33.413Z,37.40
2018-05-10T17:06:02.973Z,37.50
2018-05-10T17:08:31.655Z,37.50
2018-05-10T17:11:00.450Z,36.70
2018-05-10T17:13:28.979Z,38.00
2018-05-10T17:15:57.489Z,37.20
2018-05-10T17:18:26.860Z,36.30
2018-05-10T17:20:56.043Z,35.10
2018-05-10T17:23:24.587Z,35.00
2018-05-10T17:25:54.728Z,34.20
2018-05-10T17:28:23.649Z,34.20
2018-05-10T17:30:52.138Z,34.90
2018-05-10T17:33:21.699Z,33.70
2018-05-10T17:35:50.055Z,31.70
2018-05-10T17:38:18.603Z,32.10
2018-05-10T17:40:46.987Z,32.00
2018-05-10T17:43:15.383Z,32.60
2018-05-10T17:45:44.649Z,33.50
2018-05-10T17:48:13.299Z,33.50
2018-05-10T17:50:41.663Z,33.70
2018-05-10T17:53:10.045Z,33.90
2018-05-10T17:55:38.537Z,34.10
2018-05-10T17:58:06.936Z,35.30
2018-05-10T18:00:35.333Z,34.60
2018-05-10T18:03:05.405Z,35.80
2018-05-10T18:05:33.887Z,35.70
2018-05-10T18:08:02.289Z,36.10
2018-05-10T18:10:30.927Z,36.60
2018-05-10T18:12:59.306Z,36.80
2018-05-10T18:15:27.846Z,37.10
2018-05-10T18:17:58.089Z,38.40
2018-05-10T18:20:27.333Z,39.10
2018-05-10T18:22:55.713Z,39.10
2018-05-10T18:25:24.176Z,39.50
2018-05-10T18:27:52.589Z,40.20
2018-05-10T18:30:22.125Z,41.00
2018-05-10T18:32:50.554Z,41.10
2018-05-10T18:35:19.017Z,41.30
2018-05-10T18:37:47.917Z,41.60
2018-05-10T18:40:16.349Z,41.50
2018-05-10T18:42:44.843Z,40.90
2018-05-10T18:45:13.405Z,40.80
2018-05-10T18:47:42.883Z,40.30
2018-05-10T18:50:11.473Z,40.30
2018-05-10T18:52:39.981Z,40.40
2018-05-10T18:55:08.502Z,40.60
2018-05-10T18:57:36.967Z,40.90
2018-05-10T19:00:05.637Z,41.70
2018-05-10T19:02:34.137Z,41.40
2018-05-10T19:05:02.558Z,41.50
2018-05-10T19:07:31.717Z,42.50
2018-05-10T19:10:00.090Z,42.40
2018-05-10T19:12:28.468Z,42.90
2018-05-10T19:14:56.958Z,42.70
2018-05-10T19:17:25.428Z,42.80
2018-05-10T19:19:53.852Z,43.00
2018-05-10T19:22:22.984Z,43.40
2018-05-10T19:24:51.359Z,43.40
2018-05-10T19:27:20.234Z,43.40
2018-05-10T19:29:48.707Z,43.70
2018-05-10T19:32:17.208Z,43.80
2018-05-10T19:34:45.578Z,44.10
2018-05-10T19:37:14.089Z,44.30
2018-05-10T19:39:42.464Z,43.90
2018-05-10T19:42:11.164Z,43.90
2018-05-10T19:44:39.684Z,43.10
2018-05-10T19:47:08.224Z,43.40
2018-05-10T19:49:36.734Z,43.80
2018-05-10T19:52:05.257Z,43.60
2018-05-10T19:54:33.688Z,43.70
2018-05-10T19:57:02.164Z,43.90
2018-05-10T19:59:30.520Z,44.20
2018-05-10T20:01:59.005Z,45.10
2018-05-10T20:04:27.323Z,44.00
2018-05-10T20:06:56.700Z,44.20
2018-05-10T20:09:25.089Z,44.10
2018-05-10T20:11:54.329Z,44.50
2018-05-10T20:14:22.795Z,44.60
2018-05-10T20:16:51.649Z,44.50
2018-05-10T20:19:20.101Z,45.30
2018-05-10T20:21:48.887Z,44.80
2018-05-10T20:24:17.338Z,45.30
2018-05-10T20:26:45.769Z,45.00
2018-05-10T20:29:14.259Z,44.90
2018-05-10T20:31:42.623Z,44.30
2018-05-10T20:34:11.995Z,44.80
2018-05-10T20:36:40.692Z,44.70
2018-05-10T20:39:09.084Z,45.10
2018-05-10T20:41:37.700Z,45.70
2018-05-10T20:44:06.203Z,46.30
2018-05-10T20:46:35.332Z,46.50
2018-05-10T20:49:03.904Z,46.40
2018-05-10T20:51:32.510Z,45.90
2018-05-10T20:54:01.809Z,46.50
2018-05-10T20:56:30.448Z,45.80
2018-05-10T20:58:59.703Z,46.90
2018-05-10T21:01:28.252Z,46.90
2018-05-10T21:03:56.792Z,46.40
2018-05-10T21:06:25.223Z,46.70
2018-05-10T21:08:53.623Z,47.10
2018-05-10T21:11:22.020Z,47.10
2018-05-10T21:13:50.374Z,47.30
2018-05-10T21:16:19.001Z,47.40
2018-05-10T21:18:47.470Z,47.20
2018-05-10T21:21:15.957Z,47.50
2018-05-10T21:23:46.968Z,47.30
2018-05-10T21:26:15.636Z,47.20
2018-05-10T21:28:44.934Z,47.40
2018-05-10T21:31:13.423Z,46.80
2018-05-10T21:33:41.811Z,47.60
2018-05-10T21:36:10.257Z,48.40
2018-05-10T21:38:38.737Z,48.30
2018-05-10T21:41:07.340Z,48.60
2018-05-10T21:43:35.680Z,48.10
2018-05-10T21:46:04.922Z,47.50
2018-05-10T21:48:33.273Z,47.50
2018-05-10T21:51:01.722Z,48.00
2018-05-10T21:53:30.848Z,48.60
2018-05-10T21:55:59.393Z,48.60
2018-05-10T21:58:27.862Z,48.70
2018-05-10T22:00:56.287Z,48.90
2018-05-10T22:03:24.635Z,49.30
2018-05-10T22:05:52.969Z,49.30
2018-05-10T22:08:21.328Z,48.30
2018-05-10T22:10:49.713Z,48.50
2018-05-10T22:13:18.424Z,48.30
2018-05-10T22:15:46.749Z,48.60
2018-05-10T22:18:15.960Z,47.70
2018-05-10T22:20:44.486Z,47.70
2018-05-10T22:23:13.000Z,47.90
2018-05-10T22:25:42.122Z,48.80
2018-05-10T22:28:11.310Z,48.10
2018-05-10T22:30:39.612Z,48.10
2018-05-10T22:33:08.259Z,48.70
2018-05-10T22:35:37.572Z,48.80
2018-05-10T22:38:06.688Z,50.50
2018-05-10T22:40:35.048Z,50.30
2018-05-10T22:43:04.139Z,50.80
2018-05-10T22:45:32.676Z,50.80
2018-05-10T22:48:01.076Z,50.50
2018-05-10T22:50:30.163Z,51.00
2018-05-10T22:52:58.465Z,51.00
2018-05-10T22:55:26.950Z,51.00
2018-05-10T22:57:55.665Z,51.70
2018-05-10T23:00:24.013Z,51.70
2018-05-10T23:02:52.328Z,52.80
2018-05-10T23:05:20.612Z,52.30
2018-05-10T23:07:49.051Z,52.40
2018-05-10T23:10:18.152Z,52.10
2018-05-10T23:12:47.239Z,51.80
2018-05-10T23:15:16.328Z,51.70
2018-05-10T23:17:44.679Z,51.70
2018-05-10T23:20:13.084Z,52.90
2018-05-10T23:22:42.209Z,53.20
2018-05-10T23:25:11.113Z,53.20
2018-05-10T23:27:39.597Z,53.80
2018-05-10T23:30:07.993Z,53.20
2018-05-10T23:32:36.477Z,52.80
2018-05-10T23:35:04.873Z,52.40
2018-05-10T23:37:33.257Z,53.10
2018-05-10T23:40:01.664Z,52.90
2018-05-10T23:42:30.774Z,53.00
2018-05-10T23:44:59.998Z,52.90
2018-05-10T23:47:28.472Z,52.90
2018-05-10T23:49:56.839Z,53.10
2018-05-10T23:52:25.154Z,53.00
2018-05-10T23:54:53.988Z,52.60
2018-05-10T23:57:23.254Z,52.90
2018-05-10T23:59:51.554Z,52.90
